• Join FlightAware (Why Join?)
  • Login
  • US Flag 
08:48PM EDT


 

Airport Tracker/Info


-or-


 

Live Flight TrackerFlight Track Log ✈ CCA4494 ✈ 27-Jun-2013 ✈ ZUJZ / JZH - ZUUU / CTU

Flight Track Log - Related Links

Times and Time Zones

All times are in EDT time to prevent confusion due to time zone crossing. See the CCA4494 flight status page for this flight to view local times or setup timezone preferences in your user account.

Time Position Orientation Groundspeed Altitude Reporting Facility
EDT Latitude Longitude Course Direction KTS MPH feet Rate Location/Type
04:23AM 31.6897 103.8199 174° South  Level Estimated
04:24AM 31.6283 103.8270 174° South  Level Estimated
04:25AM 31.5668 103.8341 174° South  Level Estimated
04:26AM 31.5054 103.8412 174° South  Level Estimated
04:27AM 31.4439 103.8483 174° South  Level Estimated
04:28AM 31.3825 103.8554 174° South  Level Estimated
04:29AM 31.3211 103.8624 174° South  Level Estimated
04:30AM 31.2596 103.8695 174° South  Level Estimated
04:31AM 31.1982 103.8765 174° South  Level Estimated
04:32AM 31.1367 103.8836 174° South  Level Estimated
04:33AM 31.0753 103.8906 174° South  Level Estimated
04:34AM 31.0139 103.8976 174° South  Level Estimated
04:35AM 30.9524 103.9046 174° South  Level Estimated
04:36AM 30.8910 103.9116 174° South  Level Estimated
04:37AM 30.8295 103.9186 174° South  Level Estimated
04:38AM 30.7681 103.9256 174° South  Level Estimated
04:39AM 30.7066 103.9326 174° South  Level Estimated
04:40AM 30.6452 103.9395 174° South  Level Estimated
04:41AM 30.5837 103.9465 174° South  Level Estimated
04:42AM 30.5785 103.9471 174° South  Level Estimated
04:43AM 30.5785 103.9471 240° Southwest  Level Estimated
04:44AM 30.5785 103.9471 240° Southwest  Level Estimated